Time;durP1;ratioP1;P1;durP2;ratioP2;P2;SDS_P1;SDS_P2;PMS_P1;PMS_P2;Temp;Humidity;BMP_temperature;BMP_pressure;BME280_temperature;BME280_humidity;BME280_pressure;Samples;Min_cycle;Max_cycle;Signal;HPM_P1;HPM_P2
2021/11/29 00:00:26;;;;;;;;;;;;;;;6.99;100.00;100200.47;5037583;28;19963;-50
2021/11/29 00:02:56;;;;;;;;;;;;;;;6.77;100.00;100198.78;5054781;28;19917;-53
2021/11/29 00:05:22;;;;;;;;;;;;;;;7.02;100.00;100196.59;5053344;28;19939;-51
2021/11/29 00:07:48;;;;;;;;;;;;;;;6.70;100.00;100204.84;5054775;28;20341;-51
2021/11/29 00:10:14;;;;;;;;;;;;;;;6.70;100.00;100199.53;5053810;28;19924;-50
2021/11/29 00:12:39;;;;;;;;;;;;;;;6.88;100.00;100203.63;5054263;28;20011;-51
2021/11/29 00:15:06;;;;;;;;;;;;;;;6.63;100.00;100211.91;5086508;28;20372;-50
2021/11/29 00:17:31;;;;;;;;;;;;;;;7.05;100.00;100216.69;5086592;28;19920;-52
2021/11/29 00:19:57;;;;;;;;;;;;;;;7.06;100.00;100221.84;5053127;28;20309;-54
2021/11/29 00:22:22;;;;;;;;;;;;;;;7.41;100.00;100231.81;5054024;28;20383;-54
2021/11/29 00:24:47;;;;;;;;;;;;;;;7.58;100.00;100241.19;5053127;28;20022;-52
2021/11/29 00:27:13;;;;;;;;;;;;;;;7.65;100.00;100243.09;5086497;28;19921;-53
2021/11/29 00:29:39;;;;;;;;;;;;;;;7.46;100.00;100234.72;5086286;28;19927;-59
2021/11/29 00:32:04;;;;;;;;;;;;;;;7.55;100.00;100238.09;5069364;28;20430;-53
2021/11/29 00:34:30;;;;;;;;;;;;;;;7.70;100.00;100246.00;5054490;28;19922;-51
2021/11/29 00:36:55;;;;;;;;;;;;;;;7.79;100.00;100244.03;5053580;28;20310;-53
2021/11/29 00:39:21;;;;;;;;;;;;;;;7.81;100.00;100250.78;5053872;28;19955;-56
2021/11/29 00:41:46;;;;;;;;;;;;;;;7.82;100.00;100256.97;5053904;28;19921;-54
2021/11/29 00:44:11;;;;;;;;;;;;;;;7.73;100.00;100246.44;5052773;28;19924;-55
2021/11/29 00:46:37;;;;;;;;;;;;;;;7.64;100.00;100247.59;5053892;28;20357;-54
2021/11/29 00:49:03;;;;;;;;;;;;;;;7.57;100.00;100242.19;5054218;28;20365;-54
2021/11/29 00:51:28;;;;;;;;;;;;;;;7.59;100.00;100245.47;5054326;28;20368;-55
2021/11/29 00:53:54;;;;;;;;;;;;;;;7.51;100.00;100248.28;5053808;28;20383;-53
2021/11/29 00:56:21;;;;;;;;;;;;;;;7.51;100.00;100242.97;5053478;28;20319;-54
2021/11/29 00:58:51;;;;;;;;;;;;;;;7.38;100.00;100242.81;5052309;28;20384;-52
2021/11/29 01:01:16;;;;;;;;;;;;;;;7.34;100.00;100249.53;5085776;28;20003;-54
2021/11/29 01:03:42;;;;;;;;;;;;;;;7.36;100.00;100255.47;5086138;28;20020;-52
2021/11/29 01:06:08;;;;;;;;;;;;;;;7.34;100.00;100262.81;5069400;28;19921;-54
2021/11/29 01:08:34;;;;;;;;;;;;;;;7.45;100.00;100267.66;5055512;28;19916;-55
2021/11/29 01:11:00;;;;;;;;;;;;;;;7.55;100.00;100270.03;5058356;28;19920;-54
2021/11/29 01:13:26;;;;;;;;;;;;;;;7.32;100.00;100266.50;5056705;28;20285;-53
2021/11/29 01:15:51;;;;;;;;;;;;;;;7.26;100.00;100261.94;5057729;28;20011;-55
2021/11/29 01:18:16;;;;;;;;;;;;;;;7.53;100.00;100272.06;5056870;28;20332;-54
2021/11/29 01:20:43;;;;;;;;;;;;;;;7.26;100.00;100266.41;5057320;28;20372;-55
2021/11/29 01:23:09;;;;;;;;;;;;;;;7.18;100.00;100262.88;5056307;28;19942;-54
2021/11/29 01:25:34;;;;;;;;;;;;;;;6.92;100.00;100266.06;5056631;28;20368;-49
2021/11/29 01:28:00;;;;;;;;;;;;;;;7.30;100.00;100265.88;5088597;28;19925;-50
2021/11/29 01:30:25;;;;;;;;;;;;;;;7.30;100.00;100267.72;5055000;28;19912;-52
2021/11/29 01:32:50;;;;;;;;;;;;;;;7.26;100.00;100261.09;5056351;28;19921;-55
2021/11/29 01:35:16;;;;;;;;;;;;;;;7.18;100.00;100270.03;5088719;28;19964;-53
2021/11/29 01:37:41;;;;;;;;;;;;;;;7.18;100.00;100270.03;5056471;28;19924;-53
2021/11/29 01:40:08;;;;;;;;;;;;;;;7.51;100.00;100271.41;5056956;28;19928;-49
2021/11/29 01:42:33;;;;;;;;;;;;;;;7.56;100.00;100275.13;5056603;28;19992;-48
2021/11/29 01:44:59;;;;;;;;;;;;;;;7.53;100.00;100272.84;5055289;28;19960;-48
2021/11/29 01:47:25;;;;;;;;;;;;;;;7.45;100.00;100273.00;5056854;28;19916;-52
2021/11/29 01:49:50;;;;;;;;;;;;;;;7.29;100.00;100274.84;5056436;28;19920;-53
2021/11/29 01:52:16;;;;;;;;;;;;;;;7.31;100.00;100280.00;5071361;28;20361;-49
2021/11/29 01:54:41;;;;;;;;;;;;;;;7.30;100.00;100278.34;5072159;28;19916;-50
2021/11/29 01:57:07;;;;;;;;;;;;;;;6.82;100.00;100270.81;5056134;28;20314;-55
2021/11/29 01:59:33;;;;;;;;;;;;;;;7.24;100.00;100274.59;5055994;28;20017;-52
2021/11/29 02:01:59;;;;;;;;;;;;;;;7.31;100.00;100288.78;5054896;28;19917;-56
2021/11/29 02:04:25;;;;;;;;;;;;;;;7.18;100.00;100276.16;5055648;28;20070;-52
2021/11/29 02:06:50;;;;;;;;;;;;;;;7.34;100.00;100274.31;5056113;28;19924;-52
2021/11/29 02:09:16;;;;;;;;;;;;;;;6.97;100.00;100278.78;5056451;28;20023;-54
2021/11/29 02:11:41;;;;;;;;;;;;;;;6.87;100.00;100281.72;5056148;28;19916;-51
2021/11/29 02:14:07;;;;;;;;;;;;;;;7.06;100.00;100271.53;5055701;28;20351;-53
2021/11/29 02:16:32;;;;;;;;;;;;;;;7.09;100.00;100281.78;5054897;28;19916;-51
2021/11/29 02:18:58;;;;;;;;;;;;;;;7.12;100.00;100284.06;5055792;28;19917;-54
2021/11/29 02:21:26;;;;;;;;;;;;;;;6.81;100.00;100274.47;5086911;28;20253;-50
2021/11/29 02:23:56;;;;;;;;;;;;;;;6.67;100.00;100278.78;5055287;28;19921;-51
2021/11/29 02:26:24;;;;;;;;;;;;;;;6.62;100.00;100278.53;5056093;28;19917;-51
2021/11/29 02:28:54;;;;;;;;;;;;;;;6.93;100.00;100278.34;5054553;28;19923;-52
2021/11/29 02:31:21;;;;;;;;;;;;;;;6.78;100.00;100283.63;5088792;28;19916;-50
2021/11/29 02:33:46;;;;;;;;;;;;;;;6.89;100.00;100288.50;5055148;28;19912;-55
2021/11/29 02:36:12;;;;;;;;;;;;;;;6.90;100.00;100278.69;5056060;28;19925;-52
2021/11/29 02:38:37;;;;;;;;;;;;;;;6.78;100.00;100270.34;5056673;28;19920;-52
2021/11/29 02:41:03;;;;;;;;;;;;;;;7.00;100.00;100270.41;5087612;28;19924;-50
2021/11/29 02:43:29;;;;;;;;;;;;;;;7.06;100.00;100271.53;5055386;28;19973;-50
2021/11/29 02:45:54;;;;;;;;;;;;;;;6.88;100.00;100286.84;5054789;28;20015;-52
2021/11/29 02:48:36;;;;;;;;;;;;;;;6.63;100.00;100270.34;5053794;28;19981;-50
2021/11/29 02:51:02;;;;;;;;;;;;;;;6.65;100.00;100286.94;5055653;28;20368;-48
2021/11/29 02:53:27;;;;;;;;;;;;;;;6.62;100.00;100281.19;5055159;28;19966;-51
2021/11/29 02:55:52;;;;;;;;;;;;;;;6.90;100.00;100289.31;5054785;28;20288;-53
2021/11/29 02:58:18;;;;;;;;;;;;;;;6.87;100.00;100289.69;5087548;28;19916;-53
2021/11/29 03:00:43;;;;;;;;;;;;;;;6.97;100.00;100289.41;5086973;28;20316;-53
2021/11/29 03:03:10;;;;;;;;;;;;;;;6.82;100.00;100287.59;5054522;28;19928;-51
2021/11/29 03:05:36;;;;;;;;;;;;;;;7.10;100.00;100292.25;5086585;28;20353;-54
2021/11/29 03:08:01;;;;;;;;;;;;;;;7.00;100.00;100287.22;5054562;28;19982;-51
2021/11/29 03:10:27;;;;;;;;;;;;;;;7.02;100.00;100287.84;5054292;28;19920;-51
2021/11/29 03:12:52;;;;;;;;;;;;;;;6.74;100.00;100285.03;5054398;28;19963;-51
2021/11/29 03:15:18;;;;;;;;;;;;;;;6.58;100.00;100289.53;5054625;28;19916;-51
2021/11/29 03:17:44;;;;;;;;;;;;;;;6.60;100.00;100286.66;5054248;28;20393;-51
2021/11/29 03:20:11;;;;;;;;;;;;;;;6.88;100.00;100280.69;5054164;28;20345;-52
2021/11/29 03:22:36;;;;;;;;;;;;;;;6.95;100.00;100292.25;5054485;28;20023;-50
2021/11/29 03:25:02;;;;;;;;;;;;;;;7.12;100.00;100295.53;5086340;28;19943;-50
2021/11/29 03:27:28;;;;;;;;;;;;;;;7.08;100.00;100296.09;5054243;28;19951;-51
2021/11/29 03:29:53;;;;;;;;;;;;;;;6.79;100.00;100295.09;5052818;28;19986;-51
2021/11/29 03:32:19;;;;;;;;;;;;;;;7.05;100.00;100285.81;5085984;28;19986;-54
2021/11/29 03:34:45;;;;;;;;;;;;;;;6.92;100.00;100287.31;5054269;28;19920;-52
2021/11/29 03:37:10;;;;;;;;;;;;;;;6.93;100.00;100298.75;5053861;28;20444;-54
2021/11/29 03:39:35;;;;;;;;;;;;;;;6.96;100.00;100301.03;5087227;28;19921;-50
2021/11/29 03:42:04;;;;;;;;;;;;;;;6.92;100.00;100315.72;5054193;28;20305;-54
2021/11/29 03:44:30;;;;;;;;;;;;;;;6.91;100.00;100306.91;5054099;28;19923;-51
2021/11/29 03:46:55;;;;;;;;;;;;;;;6.80;100.00;100315.34;5054101;28;19912;-54
2021/11/29 03:49:22;;;;;;;;;;;;;;;7.02;100.00;100313.59;5053826;28;20297;-51
2021/11/29 03:51:47;;;;;;;;;;;;;;;6.96;100.00;100314.34;5086066;28;19968;-52
2021/11/29 03:54:12;;;;;;;;;;;;;;;6.53;100.00;100310.47;5052489;28;20425;-51
2021/11/29 03:56:38;;;;;;;;;;;;;;;6.84;100.00;100312.16;5056978;28;20007;-53
2021/11/29 03:59:04;;;;;;;;;;;;;;;7.08;100.00;100314.69;5088065;28;19959;-52
2021/11/29 04:01:29;;;;;;;;;;;;;;;6.56;100.00;100314.63;5053960;28;19966;-52
2021/11/29 04:03:55;;;;;;;;;;;;;;;6.72;100.00;100319.75;5052515;28;20317;-53
2021/11/29 04:06:20;;;;;;;;;;;;;;;6.82;100.00;100318.66;5054475;28;20356;-51
2021/11/29 04:08:46;;;;;;;;;;;;;;;6.77;100.00;100315.72;5053624;28;20296;-53
2021/11/29 04:11:11;;;;;;;;;;;;;;;6.93;100.00;100317.38;5086210;28;19920;-55
2021/11/29 04:13:37;;;;;;;;;;;;;;;7.02;100.00;100324.22;5053287;28;19916;-52
2021/11/29 04:16:02;;;;;;;;;;;;;;;6.96;100.00;100332.94;5053603;28;19935;-53
2021/11/29 04:18:28;;;;;;;;;;;;;;;6.82;100.00;100327.47;5053971;28;19913;-54
2021/11/29 04:20:53;;;;;;;;;;;;;;;6.65;100.00;100332.13;5053431;28;19920;-54
2021/11/29 04:23:19;;;;;;;;;;;;;;;6.99;100.00;100336.06;5052439;28;19921;-54
2021/11/29 04:25:49;;;;;;;;;;;;;;;6.59;100.00;100336.34;5052280;28;19917;-51
2021/11/29 04:28:14;;;;;;;;;;;;;;;6.54;100.00;100348.50;5086076;28;19917;-54
2021/11/29 04:30:40;;;;;;;;;;;;;;;6.77;100.00;100347.63;5053797;28;19924;-55
2021/11/29 04:33:05;;;;;;;;;;;;;;;6.68;100.00;100352.19;5085717;28;19921;-52
2021/11/29 04:35:31;;;;;;;;;;;;;;;6.73;100.00;100341.84;5052282;28;20328;-55
2021/11/29 04:37:57;;;;;;;;;;;;;;;7.07;100.00;100347.63;5054030;28;19956;-53
2021/11/29 04:40:22;;;;;;;;;;;;;;;7.23;100.00;100354.56;5052147;28;19917;-52
2021/11/29 04:42:48;;;;;;;;;;;;;;;6.81;100.00;100349.75;5052499;28;19963;-54
2021/11/29 04:45:13;;;;;;;;;;;;;;;6.70;100.00;100352.84;5068607;28;19999;-52
2021/11/29 04:47:38;;;;;;;;;;;;;;;6.70;100.00;100356.34;5085592;28;19920;-50
2021/11/29 04:50:05;;;;;;;;;;;;;;;6.93;100.00;100350.13;5053294;28;19916;-50
2021/11/29 04:52:30;;;;;;;;;;;;;;;7.08;100.00;100354.59;5053330;28;20047;-51
2021/11/29 04:54:56;;;;;;;;;;;;;;;6.96;100.00;100360.38;5085269;28;20408;-51
2021/11/29 04:57:21;;;;;;;;;;;;;;;6.97;100.00;100356.72;5051833;28;19943;-52
2021/11/29 04:59:46;;;;;;;;;;;;;;;6.69;100.00;100360.00;5052937;28;19921;-52
2021/11/29 05:02:12;;;;;;;;;;;;;;;7.31;100.00;100362.47;5085480;28;20009;-54
2021/11/29 05:04:37;;;;;;;;;;;;;;;7.03;100.00;100357.78;5051672;28;19921;-49
2021/11/29 05:07:03;;;;;;;;;;;;;;;7.28;100.00;100366.31;5085135;28;19921;-48
2021/11/29 05:09:28;;;;;;;;;;;;;;;6.87;100.00;100361.47;5052751;28;19927;-50
2021/11/29 05:11:54;;;;;;;;;;;;;;;7.01;100.00;100367.78;5053097;28;20017;-52
2021/11/29 05:14:19;;;;;;;;;;;;;;;7.02;100.00;100362.28;5053330;28;19916;-49
2021/11/29 05:16:44;;;;;;;;;;;;;;;7.07;100.00;100363.56;5085773;28;19921;-50
2021/11/29 05:19:10;;;;;;;;;;;;;;;6.93;100.00;100368.72;5053469;28;19920;-49
2021/11/29 05:21:36;;;;;;;;;;;;;;;6.94;100.00;100367.72;5054151;28;19917;-50
2021/11/29 05:24:01;;;;;;;;;;;;;;;7.15;100.00;100376.75;5053081;28;20261;-53
2021/11/29 05:26:27;;;;;;;;;;;;;;;7.35;100.00;100374.38;5085182;28;19928;-49
2021/11/29 05:28:53;;;;;;;;;;;;;;;7.30;100.00;100374.13;5053220;28;19935;-51
2021/11/29 05:31:19;;;;;;;;;;;;;;;7.34;100.00;100369.22;5052593;28;19916;-51
2021/11/29 05:33:44;;;;;;;;;;;;;;;7.29;100.00;100375.13;5052949;28;19912;-52
2021/11/29 05:36:10;;;;;;;;;;;;;;;7.15;100.00;100374.09;5052693;28;19927;-55
2021/11/29 05:38:35;;;;;;;;;;;;;;;7.25;100.00;100364.03;5052547;28;19942;-51
2021/11/29 05:41:01;;;;;;;;;;;;;;;7.32;100.00;100370.25;5053406;28;20091;-53
2021/11/29 05:43:27;;;;;;;;;;;;;;;7.16;100.00;100375.78;5085067;28;19927;-52
2021/11/29 05:45:52;;;;;;;;;;;;;;;7.29;100.00;100375.94;5052790;28;19982;-53
2021/11/29 05:48:18;;;;;;;;;;;;;;;7.42;100.00;100374.47;5052804;28;20012;-54
2021/11/29 05:50:43;;;;;;;;;;;;;;;7.30;100.00;100388.22;5052431;28;20376;-50
2021/11/29 05:53:08;;;;;;;;;;;;;;;7.25;100.00;100382.63;5084667;28;19921;-49
2021/11/29 05:55:34;;;;;;;;;;;;;;;6.93;100.00;100395.31;5054995;28;19917;-50
2021/11/29 05:57:59;;;;;;;;;;;;;;;7.11;100.00;100396.75;5088478;28;19986;-53
2021/11/29 06:00:25;;;;;;;;;;;;;;;7.32;100.00;100406.69;5088666;28;20337;-54
2021/11/29 06:02:50;;;;;;;;;;;;;;;7.19;100.00;100407.31;5088182;28;19974;-55
2021/11/29 06:05:16;;;;;;;;;;;;;;;7.37;100.00;100406.09;5088596;28;19962;-52
2021/11/29 06:07:42;;;;;;;;;;;;;;;7.22;100.00;100406.13;5056114;28;19932;-52
2021/11/29 06:10:08;;;;;;;;;;;;;;;7.49;100.00;100406.47;5055990;28;19913;-52
2021/11/29 06:12:34;;;;;;;;;;;;;;;7.23;100.00;100410.41;5055852;28;19970;-54
2021/11/29 06:14:59;;;;;;;;;;;;;;;7.28;100.00;100422.16;5054967;28;20003;-54
2021/11/29 06:17:25;;;;;;;;;;;;;;;7.40;100.00;100424.38;5055789;28;19971;-51
2021/11/29 06:19:50;;;;;;;;;;;;;;;7.23;100.00;100432.53;5088370;28;19974;-51
2021/11/29 06:22:16;;;;;;;;;;;;;;;7.38;100.00;100437.00;5055712;28;19916;-50
2021/11/29 06:24:41;;;;;;;;;;;;;;;7.60;100.00;100443.25;5056329;28;19917;-53
2021/11/29 06:27:07;;;;;;;;;;;;;;;7.00;100.00;100441.41;5055913;28;19920;-51
2021/11/29 06:29:32;;;;;;;;;;;;;;;7.63;100.00;100448.19;5054387;28;19917;-53
2021/11/29 06:31:57;;;;;;;;;;;;;;;7.76;100.00;100452.88;5055813;28;20016;-52
2021/11/29 06:34:25;;;;;;;;;;;;;;;7.20;100.00;100451.53;5055691;28;20031;-56
2021/11/29 06:36:51;;;;;;;;;;;;;;;7.14;100.00;100449.56;5087054;28;20376;-53
2021/11/29 06:39:17;;;;;;;;;;;;;;;7.18;100.00;100446.38;5055899;28;19923;-50
2021/11/29 06:41:42;;;;;;;;;;;;;;;7.68;100.00;100445.81;5087790;28;20351;-53
2021/11/29 06:44:08;;;;;;;;;;;;;;;7.47;100.00;100446.56;5057341;28;19951;-50
2021/11/29 06:46:33;;;;;;;;;;;;;;;7.21;100.00;100444.34;5056589;28;19965;-53
2021/11/29 06:48:58;;;;;;;;;;;;;;;7.68;100.00;100445.00;5055283;28;20296;-54
2021/11/29 06:51:26;;;;;;;;;;;;;;;7.25;100.00;100441.16;5055068;28;20350;-53
2021/11/29 06:53:52;;;;;;;;;;;;;;;7.26;100.00;100437.50;5055331;28;19975;-54
2021/11/29 06:56:17;;;;;;;;;;;;;;;7.69;100.00;100446.63;5055316;28;19975;-49
2021/11/29 06:58:43;;;;;;;;;;;;;;;7.73;100.00;100447.91;5055011;28;20276;-52
2021/11/29 07:01:08;;;;;;;;;;;;;;;7.66;100.00;100447.81;5054824;28;20022;-50
2021/11/29 07:03:35;;;;;;;;;;;;;;;7.45;100.00;100448.59;5087296;28;19921;-51
2021/11/29 07:06:01;;;;;;;;;;;;;;;7.62;100.00;100440.41;5054319;28;19928;-54
2021/11/29 07:08:26;;;;;;;;;;;;;;;7.39;100.00;100446.69;5054478;28;19924;-52
2021/11/29 07:10:52;;;;;;;;;;;;;;;7.48;100.00;100445.56;5054847;28;19924;-49
2021/11/29 07:13:17;;;;;;;;;;;;;;;7.52;100.00;100446.03;5054099;28;19927;-51
2021/11/29 07:15:43;;;;;;;;;;;;;;;7.64;100.00;100449.03;5055278;28;19927;-52
2021/11/29 07:18:08;;;;;;;;;;;;;;;7.58;100.00;100450.59;5054654;28;20246;-50
2021/11/29 07:20:34;;;;;;;;;;;;;;;7.85;100.00;100462.41;5055323;28;19917;-51
2021/11/29 07:23:00;;;;;;;;;;;;;;;7.86;100.00;100465.88;5054840;28;20008;-54
2021/11/29 07:25:25;;;;;;;;;;;;;;;7.92;100.00;100466.97;5054395;28;20369;-53
2021/11/29 07:27:51;;;;;;;;;;;;;;;7.68;100.00;100464.44;5053359;28;20044;-51
2021/11/29 07:30:18;;;;;;;;;;;;;;;7.93;100.00;100458.78;5054365;28;19916;-56
2021/11/29 07:32:44;;;;;;;;;;;;;;;8.23;100.00;100460.53;5087141;28;20246;-56
2021/11/29 07:35:10;;;;;;;;;;;;;;;8.04;100.00;100460.13;5055143;28;19942;-54
2021/11/29 07:37:36;;;;;;;;;;;;;;;8.59;100.00;100457.03;5054107;28;19963;-54
2021/11/29 07:40:03;;;;;;;;;;;;;;;7.89;100.00;100466.34;5055471;28;19916;-53
2021/11/29 07:42:29;;;;;;;;;;;;;;;8.04;100.00;100468.13;5054459;28;19927;-55
2021/11/29 07:44:55;;;;;;;;;;;;;;;8.35;100.00;100475.03;5053225;28;19916;-53
2021/11/29 07:47:20;;;;;;;;;;;;;;;8.63;100.00;100478.78;5054228;28;19923;-49
2021/11/29 07:49:46;;;;;;;;;;;;;;;8.53;100.00;100479.09;5053715;28;20007;-54
2021/11/29 07:52:13;;;;;;;;;;;;;;;8.52;100.00;100474.78;5070371;28;19925;-54
2021/11/29 07:54:39;;;;;;;;;;;;;;;8.68;100.00;100479.88;5069097;28;19917;-54
2021/11/29 07:57:05;;;;;;;;;;;;;;;8.60;100.00;100483.50;5052922;28;20403;-53
2021/11/29 07:59:31;;;;;;;;;;;;;;;8.53;100.00;100487.94;5053671;28;20368;-54
2021/11/29 08:01:58;;;;;;;;;;;;;;;8.66;100.00;100479.25;5054105;28;19928;-50
2021/11/29 08:04:24;;;;;;;;;;;;;;;8.52;100.00;100491.63;5053911;28;19921;-51
2021/11/29 08:06:49;;;;;;;;;;;;;;;8.61;100.00;100497.66;5055161;28;20006;-51
2021/11/29 08:09:15;;;;;;;;;;;;;;;8.69;100.00;100505.50;5087812;28;20392;-51
2021/11/29 08:11:40;;;;;;;;;;;;;;;8.61;100.00;100503.78;5053994;28;19931;-50
2021/11/29 08:14:05;;;;;;;;;;;;;;;8.94;100.00;100513.09;5053784;28;19920;-50
2021/11/29 08:16:31;;;;;;;;;;;;;;;9.03;100.00;100516.47;5053557;28;19975;-53
2021/11/29 08:18:56;;;;;;;;;;;;;;;8.73;100.00;100517.44;5052777;28;19924;-54
2021/11/29 08:21:22;;;;;;;;;;;;;;;8.55;100.00;100515.22;5053561;28;19920;-53
2021/11/29 08:23:47;;;;;;;;;;;;;;;8.66;100.00;100524.56;5054113;28;19946;-50
2021/11/29 08:26:12;;;;;;;;;;;;;;;9.07;100.00;100522.25;5069846;28;20376;-52
2021/11/29 08:28:38;;;;;;;;;;;;;;;8.80;100.00;100530.03;5068819;28;19947;-54
2021/11/29 08:31:03;;;;;;;;;;;;;;;8.82;100.00;100538.66;5052742;28;20007;-50
2021/11/29 08:33:29;;;;;;;;;;;;;;;9.15;100.00;100540.78;5052836;28;19928;-51
2021/11/29 08:35:54;;;;;;;;;;;;;;;8.97;100.00;100536.72;5053575;28;19917;-49
2021/11/29 08:38:19;;;;;;;;;;;;;;;9.21;100.00;100541.84;5053983;28;19956;-50
2021/11/29 08:40:49;;;;;;;;;;;;;;;9.16;100.00;100543.25;5085649;28;20353;-50
2021/11/29 08:43:16;;;;;;;;;;;;;;;9.08;100.00;100540.72;5085495;28;19936;-52
2021/11/29 08:45:43;;;;;;;;;;;;;;;9.17;100.00;100542.25;5053210;28;19913;-48
2021/11/29 08:48:09;;;;;;;;;;;;;;;9.00;100.00;100539.03;5052511;28;20315;-49
2021/11/29 08:50:35;;;;;;;;;;;;;;;9.34;100.00;100555.28;5053571;28;20044;-54
2021/11/29 08:53:02;;;;;;;;;;;;;;;9.36;100.00;100565.78;5068758;28;19921;-55
2021/11/29 08:55:28;;;;;;;;;;;;;;;9.54;100.00;100566.09;5053082;28;20284;-53
2021/11/29 08:57:54;;;;;;;;;;;;;;;9.13;100.00;100573.00;5053337;28;19924;-51
2021/11/29 09:00:19;;;;;;;;;;;;;;;9.45;100.00;100578.78;5053356;28;20273;-50
2021/11/29 09:02:45;;;;;;;;;;;;;;;9.50;100.00;100585.38;5052429;28;19921;-53
2021/11/29 09:05:11;;;;;;;;;;;;;;;10.03;100.00;100584.88;5051785;28;20011;-52
2021/11/29 09:07:37;;;;;;;;;;;;;;;10.35;100.00;100587.88;5069156;28;20019;-50
2021/11/29 09:10:03;;;;;;;;;;;;;;;10.23;100.00;100595.66;5052816;28;20262;-53
2021/11/29 09:12:29;;;;;;;;;;;;;;;10.24;100.00;100609.84;5051996;28;19917;-51
2021/11/29 09:14:55;;;;;;;;;;;;;;;10.51;100.00;100604.63;5052092;28;19920;-53
2021/11/29 09:17:20;;;;;;;;;;;;;;;10.85;100.00;100609.03;5051425;28;20015;-51
2021/11/29 09:19:46;;;;;;;;;;;;;;;12.33;100.00;100608.09;5052801;28;19951;-52
2021/11/29 09:22:12;;;;;;;;;;;;;;;13.33;100.00;100617.38;5085346;28;19932;-50
2021/11/29 09:24:37;;;;;;;;;;;;;;;14.49;97.77;100621.38;5052791;28;20340;-55
2021/11/29 09:27:02;;;;;;;;;;;;;;;15.43;84.07;100621.91;5053370;28;20289;-53
2021/11/29 09:29:28;;;;;;;;;;;;;;;15.47;82.25;100633.03;5086385;28;19917;-56
2021/11/29 09:31:55;;;;;;;;;;;;;;;16.44;76.25;100633.53;5056732;28;20338;-55
2021/11/29 09:34:21;;;;;;;;;;;;;;;15.37;80.29;100639.00;5089479;28;20411;-51
2021/11/29 09:36:46;;;;;;;;;;;;;;;15.37;78.50;100641.69;5057614;28;20015;-54
2021/11/29 09:39:11;;;;;;;;;;;;;;;16.05;75.24;100635.97;5057783;28;19924;-55
2021/11/29 09:41:37;;;;;;;;;;;;;;;15.84;81.78;100643.56;5056914;28;19943;-52
2021/11/29 09:44:03;;;;;;;;;;;;;;;15.60;79.58;100646.28;5056721;28;20310;-54
2021/11/29 09:46:30;;;;;;;;;;;;;;;14.45;88.47;100649.78;5055223;28;19952;-51
2021/11/29 09:48:55;;;;;;;;;;;;;;;14.22;100.00;100666.63;5056628;28;19956;-55
2021/11/29 09:51:21;;;;;;;;;;;;;;;13.44;100.00;100653.47;5056472;28;19971;-53
2021/11/29 09:53:46;;;;;;;;;;;;;;;13.04;100.00;100659.94;5056183;28;19920;-51
2021/11/29 09:56:11;;;;;;;;;;;;;;;12.84;100.00;100664.59;5056567;28;19968;-54
2021/11/29 09:58:37;;;;;;;;;;;;;;;13.04;100.00;100664.50;5056569;28;20321;-52
2021/11/29 10:01:05;;;;;;;;;;;;;;;12.58;100.00;100664.53;5054623;28;19934;-54
2021/11/29 10:03:31;;;;;;;;;;;;;;;12.59;100.00;100654.59;5056542;28;19979;-52
2021/11/29 10:05:57;;;;;;;;;;;;;;;12.32;100.00;100665.44;5055254;28;20420;-54
2021/11/29 10:08:24;;;;;;;;;;;;;;;12.52;100.00;100668.03;5054666;28;19999;-54
2021/11/29 10:10:52;;;;;;;;;;;;;;;11.88;100.00;100667.78;5071567;28;20019;-51
2021/11/29 10:13:18;;;;;;;;;;;;;;;12.37;100.00;100673.66;5055842;28;19925;-53
2021/11/29 10:15:44;;;;;;;;;;;;;;;12.50;100.00;100677.34;5054684;28;19916;-53
2021/11/29 10:18:10;;;;;;;;;;;;;;;14.54;100.00;100674.50;5054638;28;19970;-55
2021/11/29 10:20:44;;;;;;;;;;;;;;;15.76;89.65;100669.00;5055731;28;19917;-52
2021/11/29 10:23:13;;;;;;;;;;;;;;;15.51;94.52;100674.63;5088258;28;19916;-50
2021/11/29 10:25:44;;;;;;;;;;;;;;;17.34;74.97;100680.81;5054132;28;19940;-54
2021/11/29 10:28:22;;;;;;;;;;;;;;;18.76;65.64;100689.56;5055605;28;19932;-57
2021/11/29 10:31:02;;;;;;;;;;;;;;;19.81;58.17;100696.75;5055263;28;19963;-51
2021/11/29 10:33:29;;;;;;;;;;;;;;;20.71;52.80;100686.88;5055627;28;19924;-50
2021/11/29 10:35:54;;;;;;;;;;;;;;;20.87;52.41;100694.00;5054818;28;19971;-52
2021/11/29 10:38:29;;;;;;;;;;;;;;;20.51;50.43;100698.47;5055251;28;20304;-54
2021/11/29 10:40:56;;;;;;;;;;;;;;;20.23;52.17;100706.81;5054311;28;20016;-51
2021/11/29 10:43:34;;;;;;;;;;;;;;;19.85;55.66;100717.69;5054029;28;19924;-53
2021/11/29 10:46:15;;;;;;;;;;;;;;;20.09;52.53;100722.75;5087545;28;19940;-52
2021/11/29 10:48:41;;;;;;;;;;;;;;;20.87;47.77;100717.66;5055365;28;19916;-53
2021/11/29 10:51:08;;;;;;;;;;;;;;;22.16;47.00;100720.41;5054818;28;19916;-51
2021/11/29 10:53:43;;;;;;;;;;;;;;;22.25;47.24;100722.56;5056063;28;19966;-53
2021/11/29 10:56:08;;;;;;;;;;;;;;;22.20;47.00;100724.22;5055620;28;19923;-53
2021/11/29 10:58:46;;;;;;;;;;;;;;;22.70;45.24;100728.94;5055232;28;19913;-50
2021/11/29 11:01:13;;;;;;;;;;;;;;;23.70;42.13;100728.03;5071050;28;19921;-54
2021/11/29 11:03:49;;;;;;;;;;;;;;;23.30;43.16;100728.06;5054748;28;20365;-52
2021/11/29 11:06:15;;;;;;;;;;;;;;;24.44;39.16;100740.63;5055114;28;19947;-53
2021/11/29 11:08:40;;;;;;;;;;;;;;;24.92;39.77;100738.97;5051680;28;19956;-53
2021/11/29 11:11:38;;;;;;;;;;;;;;;24.88;39.31;100744.22;5086739;28;19986;-54
2021/11/29 11:14:14;;;;;;;;;;;;;;;22.98;44.24;100734.78;5042765;28;19917;-53
2021/11/29 11:16:39;;;;;;;;;;;;;;;22.48;46.80;100742.94;5087307;28;20037;-55
2021/11/29 11:19:05;;;;;;;;;;;;;;;23.62;42.70;100745.81;5054795;28;19919;-53
2021/11/29 11:21:34;;;;;;;;;;;;;;;23.94;40.33;100748.25;5054709;28;19970;-54
2021/11/29 11:24:17;;;;;;;;;;;;;;;25.35;36.20;100744.34;5054460;28;19939;-52
2021/11/29 11:26:44;;;;;;;;;;;;;;;25.41;38.28;100747.00;5072981;28;19917;-52
2021/11/29 11:29:11;;;;;;;;;;;;;;;26.34;36.00;100750.88;5056357;28;20306;-53
2021/11/29 11:31:36;;;;;;;;;;;;;;;25.50;38.16;100749.91;5053417;28;19916;-53
2021/11/29 11:34:02;;;;;;;;;;;;;;;24.62;38.54;100758.19;5055163;28;20357;-52
2021/11/29 11:36:28;;;;;;;;;;;;;;;24.28;38.05;100752.88;5054252;28;19923;-52
2021/11/29 11:38:53;;;;;;;;;;;;;;;24.45;37.49;100764.16;5070161;28;19921;-53
2021/11/29 11:41:19;;;;;;;;;;;;;;;24.81;37.27;100765.66;5069521;28;19930;-55
2021/11/29 11:43:44;;;;;;;;;;;;;;;24.19;35.56;100761.69;5054776;28;19921;-54
2021/11/29 11:46:10;;;;;;;;;;;;;;;24.58;36.96;100759.06;5054158;28;20381;-55
2021/11/29 11:48:35;;;;;;;;;;;;;;;26.29;33.25;100761.94;5052913;28;19921;-54
2021/11/29 11:51:01;;;;;;;;;;;;;;;26.66;34.14;100757.34;5054431;28;20336;-55
2021/11/29 11:53:26;;;;;;;;;;;;;;;27.29;32.64;100759.56;5054552;28;20020;-53
2021/11/29 11:55:53;;;;;;;;;;;;;;;28.23;31.72;100763.53;5053762;28;19921;-55
2021/11/29 11:58:31;;;;;;;;;;;;;;;29.01;30.11;100765.66;5054362;28;19917;-53
2021/11/29 12:01:02;;;;;;;;;;;;;;;27.83;30.57;100756.88;5052710;28;20015;-54
2021/11/29 12:03:28;;;;;;;;;;;;;;;27.39;29.35;100758.50;5053925;28;19924;-56
2021/11/29 12:05:53;;;;;;;;;;;;;;;26.00;31.59;100754.78;5053578;28;19928;-52
2021/11/29 12:08:37;;;;;;;;;;;;;;;23.74;35.29;100756.38;5054043;28;19916;-53
2021/11/29 12:11:08;;;;;;;;;;;;;;;23.57;36.22;100756.78;5054405;28;19917;-54
2021/11/29 12:13:42;;;;;;;;;;;;;;;25.46;34.40;100752.41;5053616;28;19943;-53
2021/11/29 12:16:09;;;;;;;;;;;;;;;26.17;32.31;100766.00;5051897;28;19924;-55
2021/11/29 12:18:40;;;;;;;;;;;;;;;26.86;31.36;100767.09;5052128;28;20393;-52
2021/11/29 12:21:09;;;;;;;;;;;;;;;25.74;31.88;100766.19;5053838;28;20028;-53
2021/11/29 12:23:43;;;;;;;;;;;;;;;25.19;33.09;100754.72;5053175;28;19917;-55
2021/11/29 12:26:09;;;;;;;;;;;;;;;22.88;35.70;100762.13;5053278;28;19967;-54
2021/11/29 12:28:39;;;;;;;;;;;;;;;24.25;36.31;100770.66;5085691;28;20341;-56
2021/11/29 12:31:24;;;;;;;;;;;;;;;25.76;32.42;100763.97;5052633;28;19967;-54